sensor_id;sensor_type;location;lat;lon;timestamp;P1;durP1;ratioP1;P2;durP2;ratioP2
7753;SDS011;3921;42.266;23.122;2022-07-29T02:12:19;17.53;;;13.63;;
7753;SDS011;3921;42.266;23.122;2022-07-29T02:15:15;18.80;;;14.47;;
7753;SDS011;3921;42.266;23.122;2022-07-29T02:18:00;16.23;;;13.97;;
7753;SDS011;3921;42.266;23.122;2022-07-29T04:20:56;23.43;;;16.40;;
7753;SDS011;3921;42.266;23.122;2022-07-29T04:23:28;27.40;;;16.60;;
7753;SDS011;3921;42.266;23.122;2022-07-29T04:25:58;27.93;;;16.83;;
7753;SDS011;3921;42.266;23.122;2022-07-29T04:28:27;21.43;;;16.70;;
7753;SDS011;3921;42.266;23.122;2022-07-29T04:31:04;24.27;;;17.37;;
7753;SDS011;3921;42.266;23.122;2022-07-29T04:33:34;25.63;;;17.70;;
7753;SDS011;3921;42.266;23.122;2022-07-29T04:36:09;24.10;;;17.13;;
7753;SDS011;3921;42.266;23.122;2022-07-29T04:38:53;21.83;;;16.83;;
7753;SDS011;3921;42.266;23.122;2022-07-29T04:41:21;25.90;;;17.37;;
7753;SDS011;3921;42.266;23.122;2022-07-29T04:43:50;34.13;;;18.33;;
7753;SDS011;3921;42.266;23.122;2022-07-29T04:46:18;43.07;;;20.53;;
7753;SDS011;3921;42.266;23.122;2022-07-29T04:48:50;31.63;;;19.73;;
7753;SDS011;3921;42.266;23.122;2022-07-29T04:51:18;33.77;;;18.93;;
7753;SDS011;3921;42.266;23.122;2022-07-29T04:53:45;30.77;;;18.47;;
7753;SDS011;3921;42.266;23.122;2022-07-29T04:56:19;35.13;;;18.83;;
7753;SDS011;3921;42.266;23.122;2022-07-29T04:58:50;34.40;;;18.47;;
7753;SDS011;3921;42.266;23.122;2022-07-29T05:01:26;95.57;;;47.03;;
7753;SDS011;3921;42.266;23.122;2022-07-29T05:03:55;33.30;;;21.73;;
7753;SDS011;3921;42.266;23.122;2022-07-29T05:06:26;40.03;;;20.93;;
7753;SDS011;3921;42.266;23.122;2022-07-29T05:12:00;40.43;;;20.70;;
7753;SDS011;3921;42.266;23.122;2022-07-29T05:50:37;19.63;;;17.17;;
7753;SDS011;3921;42.266;23.122;2022-07-29T06:05:26;20.07;;;15.97;;
7753;SDS011;3921;42.266;23.122;2022-07-29T06:07:57;21.00;;;17.37;;
7753;SDS011;3921;42.266;23.122;2022-07-29T06:10:25;20.90;;;16.63;;
7753;SDS011;3921;42.266;23.122;2022-07-29T06:15:27;18.80;;;16.87;;
7753;SDS011;3921;42.266;23.122;2022-07-29T06:17:55;23.43;;;16.70;;
7753;SDS011;3921;42.266;23.122;2022-07-29T06:20:22;17.97;;;16.10;;
7753;SDS011;3921;42.266;23.122;2022-07-29T06:22:51;20.30;;;16.73;;
7753;SDS011;3921;42.266;23.122;2022-07-29T06:25:21;20.73;;;16.23;;
7753;SDS011;3921;42.266;23.122;2022-07-29T06:27:48;19.53;;;16.50;;
7753;SDS011;3921;42.266;23.122;2022-07-29T06:30:19;22.37;;;16.90;;
7753;SDS011;3921;42.266;23.122;2022-07-29T06:32:54;20.53;;;16.53;;
7753;SDS011;3921;42.266;23.122;2022-07-29T06:35:22;23.40;;;16.03;;
7753;SDS011;3921;42.266;23.122;2022-07-29T06:37:50;18.33;;;15.87;;
7753;SDS011;3921;42.266;23.122;2022-07-29T06:40:21;22.50;;;17.30;;
7753;SDS011;3921;42.266;23.122;2022-07-29T06:43:05;21.67;;;15.80;;
7753;SDS011;3921;42.266;23.122;2022-07-29T07:08:46;20.70;;;17.03;;
7753;SDS011;3921;42.266;23.122;2022-07-29T07:11:15;21.33;;;17.43;;
7753;SDS011;3921;42.266;23.122;2022-07-29T07:13:57;21.07;;;17.57;;
7753;SDS011;3921;42.266;23.122;2022-07-29T07:16:30;21.43;;;16.73;;
7753;SDS011;3921;42.266;23.122;2022-07-29T07:19:16;21.33;;;17.63;;
7753;SDS011;3921;42.266;23.122;2022-07-29T14:27:21;11.20;;;9.63;;
7753;SDS011;3921;42.266;23.122;2022-07-29T14:30:09;11.80;;;9.17;;
7753;SDS011;3921;42.266;23.122;2022-07-29T14:32:59;9.53;;;8.70;;
7753;SDS011;3921;42.266;23.122;2022-07-29T14:38:13;10.03;;;9.20;;
7753;SDS011;3921;42.266;23.122;2022-07-29T14:58:41;9.37;;;8.47;;
7753;SDS011;3921;42.266;23.122;2022-07-29T15:01:43;9.87;;;9.03;;
7753;SDS011;3921;42.266;23.122;2022-07-29T15:30:29;8.90;;;8.00;;
7753;SDS011;3921;42.266;23.122;2022-07-29T15:32:57;9.67;;;8.80;;
7753;SDS011;3921;42.266;23.122;2022-07-29T15:35:27;9.87;;;7.77;;
7753;SDS011;3921;42.266;23.122;2022-07-29T17:20:39;9.93;;;6.47;;
7753;SDS011;3921;42.266;23.122;2022-07-29T17:23:07;7.43;;;6.73;;
7753;SDS011;3921;42.266;23.122;2022-07-29T17:25:34;8.53;;;6.07;;
7753;SDS011;3921;42.266;23.122;2022-07-29T17:28:01;9.20;;;6.00;;
7753;SDS011;3921;42.266;23.122;2022-07-29T17:30:29;6.97;;;6.27;;
7753;SDS011;3921;42.266;23.122;2022-07-29T17:32:56;9.73;;;5.77;;
7753;SDS011;3921;42.266;23.122;2022-07-29T17:35:23;6.80;;;6.00;;
7753;SDS011;3921;42.266;23.122;2022-07-29T17:38:08;6.47;;;5.77;;
7753;SDS011;3921;42.266;23.122;2022-07-29T17:40:36;7.17;;;6.43;;
7753;SDS011;3921;42.266;23.122;2022-07-29T17:43:03;6.53;;;5.83;;
7753;SDS011;3921;42.266;23.122;2022-07-29T17:45:33;7.13;;;5.87;;
7753;SDS011;3921;42.266;23.122;2022-07-29T17:48:00;6.73;;;6.03;;
7753;SDS011;3921;42.266;23.122;2022-07-29T17:50:28;6.30;;;5.77;;
7753;SDS011;3921;42.266;23.122;2022-07-29T17:52:55;6.97;;;5.63;;
7753;SDS011;3921;42.266;23.122;2022-07-29T17:55:23;8.77;;;5.77;;
7753;SDS011;3921;42.266;23.122;2022-07-29T17:57:50;8.97;;;7.23;;
7753;SDS011;3921;42.266;23.122;2022-07-29T18:00:18;8.67;;;6.00;;
7753;SDS011;3921;42.266;23.122;2022-07-29T18:02:47;14.73;;;7.20;;
7753;SDS011;3921;42.266;23.122;2022-07-29T18:05:16;8.07;;;6.97;;
7753;SDS011;3921;42.266;23.122;2022-07-29T18:07:47;8.13;;;6.10;;
7753;SDS011;3921;42.266;23.122;2022-07-29T18:10:25;7.50;;;5.43;;
7753;SDS011;3921;42.266;23.122;2022-07-29T18:12:58;7.23;;;6.10;;
7753;SDS011;3921;42.266;23.122;2022-07-29T18:15:30;6.70;;;6.00;;
7753;SDS011;3921;42.266;23.122;2022-07-29T18:17:59;6.10;;;5.57;;
7753;SDS011;3921;42.266;23.122;2022-07-29T18:20:33;6.60;;;6.00;;
7753;SDS011;3921;42.266;23.122;2022-07-29T18:23:02;5.90;;;5.40;;
7753;SDS011;3921;42.266;23.122;2022-07-29T18:25:40;6.60;;;5.90;;
7753;SDS011;3921;42.266;23.122;2022-07-29T18:28:18;6.90;;;6.27;;
7753;SDS011;3921;42.266;23.122;2022-07-29T18:30:50;7.30;;;5.83;;
7753;SDS011;3921;42.266;23.122;2022-07-29T18:33:37;6.70;;;5.80;;
7753;SDS011;3921;42.266;23.122;2022-07-29T18:36:08;7.07;;;6.37;;
7753;SDS011;3921;42.266;23.122;2022-07-29T18:38:52;7.20;;;6.50;;
7753;SDS011;3921;42.266;23.122;2022-07-29T18:41:27;7.40;;;5.50;;
7753;SDS011;3921;42.266;23.122;2022-07-29T18:43:58;7.77;;;6.10;;
7753;SDS011;3921;42.266;23.122;2022-07-29T18:46:25;6.57;;;5.97;;
7753;SDS011;3921;42.266;23.122;2022-07-29T18:49:09;6.00;;;5.50;;
7753;SDS011;3921;42.266;23.122;2022-07-29T18:51:48;6.27;;;5.47;;
7753;SDS011;3921;42.266;23.122;2022-07-29T18:54:21;7.53;;;6.20;;
7753;SDS011;3921;42.266;23.122;2022-07-29T18:56:53;6.70;;;5.97;;
7753;SDS011;3921;42.266;23.122;2022-07-29T18:59:28;6.80;;;6.07;;
7753;SDS011;3921;42.266;23.122;2022-07-29T19:02:01;7.23;;;6.57;;
7753;SDS011;3921;42.266;23.122;2022-07-29T19:04:33;7.07;;;6.47;;
7753;SDS011;3921;42.266;23.122;2022-07-29T19:07:06;8.67;;;7.40;;
7753;SDS011;3921;42.266;23.122;2022-07-29T19:09:37;8.17;;;7.27;;
7753;SDS011;3921;42.266;23.122;2022-07-29T19:12:12;8.30;;;7.50;;
7753;SDS011;3921;42.266;23.122;2022-07-29T19:14:42;8.20;;;7.43;;
7753;SDS011;3921;42.266;23.122;2022-07-29T19:17:16;8.17;;;7.37;;
7753;SDS011;3921;42.266;23.122;2022-07-29T19:19:54;10.30;;;7.67;;
7753;SDS011;3921;42.266;23.122;2022-07-29T19:22:43;8.70;;;7.23;;
7753;SDS011;3921;42.266;23.122;2022-07-29T19:25:16;8.13;;;6.83;;
7753;SDS011;3921;42.266;23.122;2022-07-29T19:28:07;7.67;;;6.90;;
7753;SDS011;3921;42.266;23.122;2022-07-29T19:30:52;7.30;;;6.70;;
7753;SDS011;3921;42.266;23.122;2022-07-29T19:36:16;6.90;;;6.27;;
7753;SDS011;3921;42.266;23.122;2022-07-29T19:38:45;8.00;;;6.50;;
7753;SDS011;3921;42.266;23.122;2022-07-29T19:41:13;6.93;;;5.90;;
7753;SDS011;3921;42.266;23.122;2022-07-29T19:43:51;8.33;;;6.27;;
7753;SDS011;3921;42.266;23.122;2022-07-29T19:46:28;6.57;;;5.97;;
7753;SDS011;3921;42.266;23.122;2022-07-29T19:48:59;6.63;;;5.93;;
7753;SDS011;3921;42.266;23.122;2022-07-29T19:51:34;6.97;;;5.80;;
7753;SDS011;3921;42.266;23.122;2022-07-29T19:54:15;7.50;;;6.77;;
7753;SDS011;3921;42.266;23.122;2022-07-29T19:56:52;9.03;;;6.13;;
7753;SDS011;3921;42.266;23.122;2022-07-29T19:59:31;7.27;;;6.47;;
7753;SDS011;3921;42.266;23.122;2022-07-29T20:02:04;6.93;;;6.20;;
7753;SDS011;3921;42.266;23.122;2022-07-29T20:04:43;6.80;;;6.17;;
7753;SDS011;3921;42.266;23.122;2022-07-29T20:07:14;7.40;;;6.50;;
7753;SDS011;3921;42.266;23.122;2022-07-29T20:09:49;7.30;;;6.60;;
7753;SDS011;3921;42.266;23.122;2022-07-29T20:12:21;6.60;;;5.80;;
7753;SDS011;3921;42.266;23.122;2022-07-29T20:14:53;6.93;;;6.30;;
7753;SDS011;3921;42.266;23.122;2022-07-29T20:17:26;11.67;;;7.60;;
7753;SDS011;3921;42.266;23.122;2022-07-29T20:20:06;7.30;;;6.60;;
7753;SDS011;3921;42.266;23.122;2022-07-29T20:22:36;7.77;;;6.97;;
7753;SDS011;3921;42.266;23.122;2022-07-29T20:25:10;7.50;;;6.80;;
7753;SDS011;3921;42.266;23.122;2022-07-29T20:27:41;7.13;;;6.53;;
7753;SDS011;3921;42.266;23.122;2022-07-29T20:30:18;7.03;;;6.23;;
7753;SDS011;3921;42.266;23.122;2022-07-29T20:33:00;7.37;;;6.67;;
7753;SDS011;3921;42.266;23.122;2022-07-29T20:35:31;7.93;;;7.13;;
7753;SDS011;3921;42.266;23.122;2022-07-29T20:38:05;10.47;;;7.33;;
7753;SDS011;3921;42.266;23.122;2022-07-29T20:40:37;10.07;;;7.40;;
7753;SDS011;3921;42.266;23.122;2022-07-29T20:43:09;8.43;;;7.53;;
7753;SDS011;3921;42.266;23.122;2022-07-29T20:45:40;7.53;;;6.63;;
7753;SDS011;3921;42.266;23.122;2022-07-29T20:48:12;7.23;;;6.63;;
7753;SDS011;3921;42.266;23.122;2022-07-29T20:50:47;7.20;;;6.50;;
7753;SDS011;3921;42.266;23.122;2022-07-29T20:53:23;8.00;;;6.37;;
7753;SDS011;3921;42.266;23.122;2022-07-29T20:55:53;7.73;;;7.03;;
7753;SDS011;3921;42.266;23.122;2022-07-29T20:58:21;8.47;;;6.90;;
7753;SDS011;3921;42.266;23.122;2022-07-29T21:00:52;8.97;;;7.30;;
7753;SDS011;3921;42.266;23.122;2022-07-29T21:03:22;11.30;;;7.13;;
7753;SDS011;3921;42.266;23.122;2022-07-29T21:05:49;11.17;;;7.33;;
7753;SDS011;3921;42.266;23.122;2022-07-29T21:08:25;10.80;;;7.17;;
7753;SDS011;3921;42.266;23.122;2022-07-29T21:10:59;9.77;;;7.17;;
7753;SDS011;3921;42.266;23.122;2022-07-29T21:13:28;9.60;;;7.03;;
7753;SDS011;3921;42.266;23.122;2022-07-29T21:16:03;7.27;;;6.57;;
7753;SDS011;3921;42.266;23.122;2022-07-29T21:18:37;9.50;;;6.60;;
7753;SDS011;3921;42.266;23.122;2022-07-29T21:21:10;7.57;;;6.77;;
7753;SDS011;3921;42.266;23.122;2022-07-29T21:23:48;7.27;;;6.67;;
7753;SDS011;3921;42.266;23.122;2022-07-29T21:26:21;8.67;;;6.80;;
7753;SDS011;3921;42.266;23.122;2022-07-29T21:28:48;9.03;;;8.07;;
7753;SDS011;3921;42.266;23.122;2022-07-29T21:31:18;10.03;;;9.07;;
7753;SDS011;3921;42.266;23.122;2022-07-29T21:38:58;10.90;;;9.33;;
7753;SDS011;3921;42.266;23.122;2022-07-29T21:41:32;11.57;;;10.23;;
7753;SDS011;3921;42.266;23.122;2022-07-29T21:44:25;12.30;;;9.90;;
7753;SDS011;3921;42.266;23.122;2022-07-29T21:46:57;12.50;;;11.23;;
7753;SDS011;3921;42.266;23.122;2022-07-29T21:49:29;12.87;;;10.53;;
7753;SDS011;3921;42.266;23.122;2022-07-29T21:52:07;10.80;;;9.80;;
7753;SDS011;3921;42.266;23.122;2022-07-29T21:54:36;10.87;;;8.93;;
7753;SDS011;3921;42.266;23.122;2022-07-29T21:57:04;8.97;;;8.07;;
7753;SDS011;3921;42.266;23.122;2022-07-29T21:59:35;8.87;;;8.10;;
7753;SDS011;3921;42.266;23.122;2022-07-29T22:02:18;10.63;;;8.40;;
7753;SDS011;3921;42.266;23.122;2022-07-29T22:04:50;10.50;;;7.87;;
7753;SDS011;3921;42.266;23.122;2022-07-29T22:07:17;8.90;;;8.00;;
7753;SDS011;3921;42.266;23.122;2022-07-29T22:09:45;9.57;;;8.50;;
7753;SDS011;3921;42.266;23.122;2022-07-29T22:12:15;9.20;;;8.30;;
7753;SDS011;3921;42.266;23.122;2022-07-29T22:14:50;11.60;;;8.63;;
7753;SDS011;3921;42.266;23.122;2022-07-29T22:17:25;10.40;;;8.47;;
7753;SDS011;3921;42.266;23.122;2022-07-29T22:19:58;9.20;;;8.27;;
7753;SDS011;3921;42.266;23.122;2022-07-29T22:22:29;11.10;;;8.97;;
7753;SDS011;3921;42.266;23.122;2022-07-29T22:24:57;10.10;;;8.60;;
7753;SDS011;3921;42.266;23.122;2022-07-29T22:27:27;11.43;;;9.40;;
7753;SDS011;3921;42.266;23.122;2022-07-29T22:30:18;12.70;;;9.93;;
7753;SDS011;3921;42.266;23.122;2022-07-29T22:32:50;11.33;;;9.20;;
7753;SDS011;3921;42.266;23.122;2022-07-29T22:35:20;11.10;;;9.20;;
7753;SDS011;3921;42.266;23.122;2022-07-29T22:37:47;12.67;;;9.37;;
7753;SDS011;3921;42.266;23.122;2022-07-29T22:40:20;10.43;;;9.37;;
7753;SDS011;3921;42.266;23.122;2022-07-29T22:42:52;11.47;;;9.73;;
7753;SDS011;3921;42.266;23.122;2022-07-29T22:45:19;10.80;;;9.67;;
7753;SDS011;3921;42.266;23.122;2022-07-29T22:47:46;10.00;;;9.10;;
7753;SDS011;3921;42.266;23.122;2022-07-29T22:50:15;13.67;;;10.00;;
7753;SDS011;3921;42.266;23.122;2022-07-29T22:52:42;11.47;;;9.63;;
7753;SDS011;3921;42.266;23.122;2022-07-29T22:55:09;11.10;;;9.57;;
7753;SDS011;3921;42.266;23.122;2022-07-29T22:57:37;12.37;;;10.13;;
7753;SDS011;3921;42.266;23.122;2022-07-29T23:00:05;10.73;;;9.63;;
7753;SDS011;3921;42.266;23.122;2022-07-29T23:02:33;11.77;;;10.03;;
7753;SDS011;3921;42.266;23.122;2022-07-29T23:05:02;11.37;;;10.10;;
7753;SDS011;3921;42.266;23.122;2022-07-29T23:07:42;10.60;;;9.57;;
7753;SDS011;3921;42.266;23.122;2022-07-29T23:10:14;14.73;;;10.27;;
7753;SDS011;3921;42.266;23.122;2022-07-29T23:12:54;11.43;;;10.23;;
7753;SDS011;3921;42.266;23.122;2022-07-29T23:15:23;13.63;;;10.83;;
7753;SDS011;3921;42.266;23.122;2022-07-29T23:17:57;11.60;;;9.93;;
7753;SDS011;3921;42.266;23.122;2022-07-29T23:20:30;11.70;;;10.10;;
7753;SDS011;3921;42.266;23.122;2022-07-29T23:23:02;11.80;;;10.70;;
7753;SDS011;3921;42.266;23.122;2022-07-29T23:25:29;13.40;;;11.23;;
7753;SDS011;3921;42.266;23.122;2022-07-29T23:28:01;12.80;;;11.50;;
7753;SDS011;3921;42.266;23.122;2022-07-29T23:30:34;15.77;;;11.37;;
7753;SDS011;3921;42.266;23.122;2022-07-29T23:33:04;15.13;;;11.43;;
7753;SDS011;3921;42.266;23.122;2022-07-29T23:35:40;15.73;;;10.83;;
7753;SDS011;3921;42.266;23.122;2022-07-29T23:38:10;10.97;;;9.40;;
7753;SDS011;3921;42.266;23.122;2022-07-29T23:40:37;12.77;;;9.47;;
7753;SDS011;3921;42.266;23.122;2022-07-29T23:43:05;13.73;;;9.80;;
7753;SDS011;3921;42.266;23.122;2022-07-29T23:45:44;10.00;;;8.90;;
7753;SDS011;3921;42.266;23.122;2022-07-29T23:48:29;12.77;;;8.63;;
7753;SDS011;3921;42.266;23.122;2022-07-29T23:51:08;10.73;;;8.90;;
7753;SDS011;3921;42.266;23.122;2022-07-29T23:53:38;11.37;;;8.83;;
7753;SDS011;3921;42.266;23.122;2022-07-29T23:56:10;13.30;;;8.63;;
7753;SDS011;3921;42.266;23.122;2022-07-29T23:58:49;10.13;;;9.13;;
